Flight Track Log - Related Links

Times and Time Zones

All times are in EDT time to prevent confusion due to time zone crossing. See the N589H flight status page for this flight to view local times or setup timezone preferences in your user account.

Time Position Orientation Groundspeed Altitude Reporting Facility
EDT Latitude Longitude Course Direction KTS MPH feet Rate Location/Type
Fri 10:31:15 AM 18.0000 -63.0667 289° West 190 219 7,200  Level San Juan Center
Fri 10:32:15 AM 18.0167 -63.1167 289° West 230 265 8,700 1,550 Climbing San Juan Center
Fri 10:33:15 AM 18.0167 -63.2000 270° West 240 276 10,300 1,587 Climbing San Juan Center
Fri 10:34:16 AM 18.0333 -63.2667 285° West 260 299 11,900 1,587 Climbing San Juan Center
Fri 10:35:16 AM 18.0500 -63.3500 282° West 270 311 13,500 1,650 Climbing San Juan Center
Fri 10:36:16 AM 18.0667 -63.4333 282° West 270 311 15,200 1,636 Climbing San Juan Center
Fri 10:37:17 AM 18.0833 -63.5000 285° West 270 311 16,800 1,636 Climbing San Juan Center
Fri 10:38:17 AM 18.1000 -63.5833 282° West 270 311 18,500 1,587 Climbing San Juan Center
Fri 10:39:18 AM 18.1000 -63.6667 270° West 270 311 20,000 1,438 Climbing San Juan Center
Fri 10:40:18 AM 18.1167 -63.7333 285° West 260 299 21,400 1,200 Climbing San Juan Center
Fri 10:41:18 AM 18.1500 -63.8000 298° West 280 322 22,400 992 Climbing San Juan Center
Fri 10:42:19 AM 18.1833 -63.8833 293° West 290 334 23,400 1,041 Climbing San Juan Center
Fri 10:43:19 AM 18.2167 -63.9667 293° West 300 345 24,500 1,041 Climbing San Juan Center
Fri 10:44:20 AM 18.2500 -64.0500 293° West 300 345 25,500 992 Climbing San Juan Center
Fri 10:45:20 AM 18.2833 -64.1333 293° West 300 345 26,500 950 Climbing San Juan Center
Fri 10:46:20 AM 18.3000 -64.2167 282° West 300 345 27,400 942 Climbing San Juan Center
Fri 10:47:21 AM 18.3333 -64.2833 298° West 290 334 28,400 893 Climbing San Juan Center
Fri 10:48:21 AM 18.3667 -64.3667 293° West 290 334 29,200 800 Climbing San Juan Center
Fri 10:49:21 AM 18.4000 -64.4500 293° West 280 322 30,000 694 Climbing San Juan Center
Fri 10:50:22 AM 18.4333 -64.5333 293° West 290 334 30,600 496 Climbing San Juan Center
Fri 10:51:22 AM 18.4667 -64.6000 298° West 290 334 31,000 350 Climbing San Juan Center
Fri 10:52:22 AM 18.5000 -64.6833 293° West 300 345 31,300 347 Climbing San Juan Center
Fri 10:53:23 AM 18.5333 -64.7667 293° West 310 357 31,700 347 Climbing San Juan Center
Fri 10:54:23 AM 18.5500 -64.8500 282° West 310 357 32,000 149 Climbing San Juan Center
Fri 10:55:24 AM 18.5833 -64.9333 293° West 320 368 32,000  Level San Juan Center
Fri 10:56:24 AM 18.6167 -65.0333 289° West 330 380 32,000  Level San Juan Center
Fri 10:57:24 AM 18.6500 -65.1167 293° West 330 380 32,000  Level San Juan Center
Fri 10:58:25 AM 18.6833 -65.2167 289° West 330 380 32,000  Level San Juan Center
Fri 10:59:25 AM 18.7167 -65.3000 293° West 320 368 32,000  Level San Juan Center
Fri 11:00:25 AM 18.7667 -65.3833 302° West 320 368 32,000  Level San Juan Center
Fri 11:01:26 AM 18.7833 -65.4833 280° West 330 380 32,000  Level San Juan Center
Fri 11:02:26 AM 18.8167 -65.5667 293° West 320 368 32,000  Level San Juan Center
Fri 11:03:26 AM 18.8500 -65.6500 293° West 320 368 32,000  Level San Juan Center
Fri 11:04:27 AM 18.8833 -65.7500 289° West 320 368 32,000  Level San Juan Center
Fri 11:05:27 AM 18.9167 -65.8333 293° West 320 368 32,000  Level San Juan Center
Fri 11:06:27 AM 18.9500 -65.9167 293° West 320 368 32,000  Level San Juan Center
Fri 11:07:28 AM 18.9833 -66.0167 289° West 310 357 32,000  Level San Juan Center
Fri 11:08:28 AM 19.0167 -66.1000 293° West 320 368 32,000  Level San Juan Center
Fri 11:09:28 AM 19.0500 -66.1833 293° West 320 368 32,000  Level San Juan Center
Fri 11:10:29 AM 19.0833 -66.2667 293° West 320 368 32,000  Level San Juan Center
Fri 11:11:29 AM 19.1167 -66.3667 289° West 320 368 32,000  Level San Juan Center
Fri 11:12:29 AM 19.1500 -66.4500 293° West 330 380 32,000  Level San Juan Center
Fri 11:13:30 AM 19.1833 -66.5333 293° West 310 357 32,000  Level San Juan Center
Fri 11:14:30 AM 19.2167 -66.6167 293° West 320 368 32,000  Level San Juan Center
Fri 11:15:31 AM 19.2500 -66.7000 293° West 330 380 32,000  Level San Juan Center
Fri 11:16:31 AM 19.2833 -66.8000 289° West 330 380 32,000  Level San Juan Center
Fri 11:17:31 AM 19.3167 -66.8833 293° West 330 380 32,000  Level San Juan Center
Fri 11:18:32 AM 19.3333 -66.9833 280° West 320 368 32,000  Level San Juan Center
Fri 11:19:32 AM 19.3667 -67.0667 293° West 330 380 32,000  Level San Juan Center
Fri 11:20:33 AM 19.4000 -67.1500 293° West 330 380 32,000  Level San Juan Center
Fri 11:21:33 AM 19.4333 -67.2500 289° West 330 380 32,000  Level San Juan Center
Fri 11:22:33 AM 19.4833 -67.3500 298° West 330 380 32,000  Level San Juan Center
Fri 11:23:34 AM 19.5167 -67.4500 289° West 330 380 32,000  Level San Juan Center
Fri 11:24:34 AM 19.5500 -67.5333 293° West 330 380 32,000  Level San Juan Center
Fri 11:25:35 AM 19.5833 -67.6167 293° West 330 380 32,000  Level San Juan Center
Fri 11:26:35 AM 19.6167 -67.7167 290° West 330 380 32,000  Level San Juan Center
Fri 11:27:35 AM 19.6333 -67.8000 282° West 330 380 32,000  Level San Juan Center
Fri 11:28:36 AM 19.6667 -67.9000 290° West 330 380 32,000  Level San Juan Center
Fri 11:29:36 AM 19.7000 -67.9833 293° West 320 368 32,000  Level San Juan Center
Fri 11:30:36 AM 19.7333 -68.0667 293° West 330 380 32,000  Level San Juan Center
Fri 11:31:37 AM 19.7667 -68.1667 290° West 320 368 32,000  Level San Juan Center
Fri 11:32:37 AM 19.8000 -68.2500 293° West 330 380 32,000  Level San Juan Center
Fri 11:34:20 AM 19.8611 -68.4247 290° West 391 450 32,000  Level Miami Center
Fri 11:35:20 AM 19.8969 -68.5106 294° West 346 398 32,000  Level Miami Center
Fri 11:36:20 AM 19.9447 -68.5911 302° West 319 367 32,000  Level Miami Center
Fri 11:37:20 AM 19.9947 -68.6675 305° West 324 373 32,000  Level Miami Center
Fri 11:38:20 AM 20.0425 -68.7483 302° West 324 373 32,000  Level Miami Center
Fri 11:39:20 AM 20.0944 -68.8267 305° West 324 373 32,000  Level Miami Center
Fri 11:40:20 AM 20.1400 -68.9056 302° West 324 373 32,000  Level Miami Center
Fri 11:41:20 AM 20.1900 -68.9844 304° West 324 373 32,000  Level Miami Center
Fri 11:42:20 AM 20.2375 -69.0633 303° West 324 373 32,000  Level Miami Center
Fri 11:43:20 AM 20.2850 -69.1400 303° West 324 373 32,000  Level Miami Center
Fri 11:44:20 AM 20.3306 -69.2192 302° West 319 367 32,000  Level Miami Center
Fri 11:45:20 AM 20.3803 -69.2958 305° West 314 361 32,000  Level Miami Center
Fri 11:46:20 AM 20.4258 -69.3772 301° West 314 361 32,000  Level Miami Center
Fri 11:47:20 AM 20.4753 -69.4542 304° West 314 361 32,000  Level Miami Center
Fri 11:48:20 AM 20.5208 -69.5358 301° West 314 361 32,000  Level Miami Center
Fri 11:49:20 AM 20.5681 -69.6128 303° West 314 361 32,000  Level Miami Center
Fri 11:50:20 AM 20.6178 -69.6919 304° West 314 361 32,000  Level Miami Center
Fri 11:51:20 AM 20.6650 -69.7714 302° West 314 361 32,000  Level Miami Center
Fri 11:52:20 AM 20.7125 -69.8511 303° West 314 361 32,000  Level Miami Center
Fri 11:53:20 AM 20.7597 -69.9283 303° West 319 367 32,000  Level Miami Center
Fri 11:54:20 AM 20.8050 -70.0081 301° West 314 361 32,000  Level Miami Center
Fri 11:55:20 AM 20.8542 -70.0853 304° West 314 361 32,000  Level Miami Center
Fri 11:56:20 AM 20.9014 -70.1650 302° West 314 361 32,000  Level Miami Center
Fri 11:57:20 AM 20.9486 -70.2447 302° West 319 367 32,000  Level Miami Center
Fri 11:58:20 AM 20.9936 -70.3225 302° West 319 367 32,000  Level Miami Center
Fri 11:59:20 AM 21.0406 -70.4000 303° West 314 361 32,000  Level Miami Center
Fri 12:00:20 PM 21.0878 -70.4778 303° West 314 361 32,000  Level Miami Center
Fri 12:01:20 PM 21.1347 -70.5578 302° West 314 361 32,000  Level Miami Center
Fri 12:02:20 PM 21.1794 -70.6358 302° West 314 361 32,000  Level Miami Center
Fri 12:03:20 PM 21.2264 -70.7136 303° West 314 361 32,000  Level Miami Center
Fri 12:04:20 PM 21.2733 -70.7917 303° West 314 361 32,000  Level Miami Center
Fri 12:05:20 PM 21.3092 -70.8544 302° West 314 361 32,000  Level Miami Center
Fri 12:06:20 PM 21.3650 -70.9456 303° West 314 361 32,000  Level Miami Center
Fri 12:07:20 PM 21.4117 -71.0236 303° West 314 361 32,000  Level Miami Center
Fri 12:08:32 PM 21.4589 -71.1131 300° West 314 361 32,000  Level Miami Center
Fri 12:09:32 PM 21.5078 -71.1933 303° West 314 361 32,000  Level Miami Center
Fri 12:10:32 PM 21.5611 -71.2847 302° West 370 426 32,000  Level Miami Center
Fri 12:11:32 PM 21.6056 -71.3608 302° West 340 391 32,000  Level Miami Center
Fri 12:12:32 PM 21.6522 -71.4392 303° West 318 366 32,000  Level Miami Center
Fri 12:13:32 PM 21.6967 -71.5178 301° West 313 360 32,000  Level Miami Center
Fri 12:14:32 PM 21.7433 -71.5964 303° West 313 360 32,000  Level Miami Center
Fri 12:15:32 PM 21.7856 -71.6728 301° West 313 360 32,000  Level Miami Center
Fri 12:16:32 PM 21.8319 -71.7514 302° West 313 360 32,000  Level Miami Center
Fri 12:17:32 PM 21.8783 -71.8303 302° West 313 360 32,000  Level Miami Center
Fri 12:18:32 PM 21.9228 -71.9114 301° West 313 360 32,000  Level Miami Center
Fri 12:19:32 PM 21.9692 -71.9878 303° West 313 360 32,000  Level Miami Center
Fri 12:20:32 PM 22.0111 -72.0647 300° West 313 360 32,000  Level Miami Center
Fri 12:21:32 PM 22.0553 -72.1436 301° West 313 360 32,000  Level Miami Center
Fri 12:22:32 PM 22.1017 -72.2225 302° West 313 360 32,000  Level Miami Center
Fri 12:23:32 PM 22.1458 -72.3017 301° West 313 360 32,000  Level Miami Center
Fri 12:24:32 PM 22.1919 -72.3786 303° West 313 360 32,000  Level Miami Center
Fri 12:25:32 PM 22.2361 -72.4600 300° West 313 360 32,000  Level Miami Center
Fri 12:26:32 PM 22.2800 -72.5392 301° West 313 360 32,000  Level Miami Center
Fri 12:27:32 PM 22.3239 -72.6164 302° West 313 360 32,000  Level Miami Center
Fri 12:28:32 PM 22.3678 -72.6936 302° West 313 360 32,000  Level Miami Center
Fri 12:29:32 PM 22.4139 -72.7706 303° West 307 353 32,000  Level Miami Center
Fri 12:30:32 PM 22.4597 -72.8478 303° West 307 353 32,000  Level Miami Center
Fri 12:31:32 PM 22.4994 -72.9297 298° West 307 353 32,000  Level Miami Center
Fri 12:32:32 PM 22.5433 -73.0094 301° West 301 346 32,000  Level Miami Center
Fri 12:33:32 PM 22.5911 -73.0844 305° West 307 353 32,000  Level Miami Center
Fri 12:34:32 PM 22.6306 -73.1553 301° West 307 353 32,000  Level Miami Center
Fri 12:35:43 PM 22.6761 -73.2350 302° West 307 353 32,000  Level Miami Center
Fri 12:36:44 PM 22.7286 -73.3281 301° West 313 360 32,000  Level Miami Center
Fri 12:37:44 PM 22.7764 -73.4078 303° West 313 360 32,000  Level Miami Center
Fri 12:38:44 PM 22.8178 -73.4856 300° West 307 353 32,000  Level Miami Center
Fri 12:39:44 PM 22.8614 -73.5656 301° West 307 353 32,000  Level Miami Center
Fri 12:40:44 PM 22.9069 -73.6456 302° West 307 353 32,000  Level Miami Center
Fri 12:41:44 PM 22.9503 -73.7233 301° West 302 348 32,000  Level Miami Center
Fri 12:42:44 PM 22.9936 -73.8036 300° West 307 353 32,000  Level Miami Center
Fri 12:43:44 PM 23.0392 -73.8814 302° West 312 359 32,000  Level Miami Center
Fri 12:44:44 PM 23.0825 -73.9617 300° West 312 359 32,000  Level Miami Center
Fri 12:45:44 PM 23.1278 -74.0419 302° West 312 359 32,000  Level Miami Center
Fri 12:46:44 PM 23.1711 -74.1200 301° West 312 359 32,000  Level Miami Center
Fri 12:47:44 PM 23.2144 -74.1983 301° West 312 359 32,000  Level Miami Center
Fri 12:48:44 PM 23.2556 -74.2789 299° West 312 359 32,000  Level Miami Center
Fri 12:49:44 PM 23.3006 -74.3547 303° West 312 359 32,000  Level Miami Center
Fri 12:50:44 PM 23.3436 -74.4331 301° West 307 353 32,000  Level Miami Center
Fri 12:51:44 PM 23.3889 -74.5139 301° West 307 353 32,000  Level Miami Center
Fri 12:52:44 PM 23.4297 -74.5922 300° West 307 353 32,000  Level Miami Center
Fri 12:53:44 PM 23.4747 -74.6731 301° West 307 353 32,000  Level Miami Center
Fri 12:54:44 PM 23.5178 -74.7517 301° West 302 348 32,000  Level Miami Center
Fri 12:55:44 PM 23.5606 -74.8278 302° West 302 348 32,000  Level Miami Center
Fri 12:56:44 PM 23.6033 -74.9089 300° West 302 348 32,000  Level Miami Center
Fri 12:57:43 PM 23.6378 -74.9719 301° West 302 348 32,000  Level Miami Center
Fri 12:58:44 PM 23.6911 -75.0708 301° West 302 348 32,000  Level Miami Center
Fri 12:59:44 PM 23.7339 -75.1519 300° West 302 348 32,000  Level Miami Center
Fri 01:00:44 PM 23.7786 -75.2331 301° West 302 348 32,000 -100 Level Miami Center
Fri 01:01:44 PM 23.8233 -75.3119 302° West 302 348 31,800 -450 Descending Miami Center
Fri 01:02:44 PM 23.8661 -75.3956 299° West 308 354 31,100 -650 Descending Miami Center
Fri 01:03:44 PM 23.9128 -75.4836 300° West 314 361 30,500 -600 Descending Miami Center
Fri 01:04:44 PM 23.9597 -75.5694 301° West 327 376 29,900 -750 Descending Miami Center
Fri 01:05:44 PM 24.0064 -75.6578 300° West 332 382 29,000 -850 Descending Miami Center
Fri 01:06:44 PM 24.0550 -75.7483 300° West 332 382 28,200 -900 Descending Miami Center
Fri 01:07:44 PM 24.1017 -75.8367 300° West 332 382 27,200 -1,000 Descending Miami Center
Fri 01:08:44 PM 24.1461 -75.9253 299° West 332 382 26,200 -1,000 Descending Miami Center
Fri 01:09:44 PM 24.1947 -76.0114 302° West 332 382 25,200 -1,050 Descending Miami Center
Fri 01:10:44 PM 24.2392 -76.0978 299° West 327 376 24,100 -1,050 Descending Miami Center
Fri 01:11:44 PM 24.2833 -76.1817 300° West 327 376 23,100 -1,000 Descending Miami Center
Fri 01:12:44 PM 24.3236 -76.2592 300° West 317 365 22,100 -1,100 Descending Miami Center
Fri 01:13:44 PM 24.3656 -76.3364 301° West 306 352 20,900 -1,250 Descending Miami Center
Fri 01:14:44 PM 24.4056 -76.4161 299° West 301 346 19,600 -1,400 Descending Miami Center
Fri 01:15:44 PM 24.4475 -76.4914 301° West 294 338 18,100 -1,350 Descending Miami Center
Fri 01:16:44 PM 24.4875 -76.5689 300° West 289 333 16,900 -1,300 Descending Miami Center
Fri 01:17:44 PM 24.5231 -76.6442 297° West 289 333 15,500 -1,450 Descending Miami Center
Fri 01:18:44 PM 24.5669 -76.7172 303° West 289 333 14,000 -1,500 Descending Miami Center
Fri 01:19:44 PM 24.6069 -76.7925 300° West 289 333 12,500 -950 Descending Miami Center
Fri 01:20:44 PM 24.6444 -76.8725 297° West 289 333 12,100 -200 Descending Miami Center
Fri 01:21:44 PM 24.6947 -76.9433 308° West 295 339 12,100 -50 Level Miami Center
Fri 01:22:44 PM 24.7447 -77.0167 307° West 295 339 12,000 -100 Descending Miami Center
Fri 01:24:00 PM 24.8041 -77.1145 306° West  Level FlightAware Approximate
Fri 01:31:00 PM 25.0333 -77.4500 310° West  Level FlightAware Approximate
Fri 01:32:00 PM 25.0390 -77.4662 310° West  Level Estimated
Fri 01:33:00 PM 25.0390 -77.4662 310° West  Level Estimated
Fri 01:34:00 PM 25.0390 -77.4662 310° West  Level Estimated
Fri 01:35:00 PM 25.0390 -77.4662 310° West  Level Estimated
Fri 01:36:00 PM 25.0390 -77.4662 310° West  Level Estimated
Fri 01:37:00 PM 25.0390 -77.4662 310° West  Level Estimated
Fri 01:38:00 PM 25.0390 -77.4662 310° West  Level Estimated
Fri 01:39:00 PM 25.0390 -77.4662 310° West  Level Estimated
Fri 01:40:00 PM 25.0390 -77.4662 310° West  Level Estimated
Fri 01:41:00 PM 25.0390 -77.4662 310° West  Level Estimated
Fri 01:42:00 PM 25.0390 -77.4662 310° West  Level Estimated
Fri 01:43:00 PM 25.0390 -77.4662 310° West  Level Estimated

Login

Don't have an account? Register now (free) for customized features, flight alerts, and more!